M I D A S
Marine Information and Data Acquisition System
Tripno 1296 of the Zeeleeuw from 2007-06-20 06:34:19 to 2007-06-20 14:37:03
Back to CruiseResearch ActivitiesStationsMapUnderway DataData graphs

EquipmentUnitsComments
TimeDGPSUTC
LatitudeDGPSDM.mWGS84
LongitudeDGPSDM.mWGS84
SpeedMeteo Stationm/sRelative wind speed
DirectionMeteo StationdegRelative wind direction
TemperatureMeteo Stationdeg CelciusAir temperature
PressureMeteo StationPaAtmospheric pressure
HumidityMeteo Station%Relative humidity
Missing or incorrect values are displayed as -999
Metereological data collected by the RV Zeeleeuw from 2007-06-20 06:36:08 to 2007-06-20 14:48:29
Time Latitude Longitude Speed Direction Temperature Pressure Humidity
2007-06-20 06:37 51°13.619 2°56.028 -999 -999 -999 -999 -999
2007-06-20 06:38 51°13.659 2°55.915 -999 -999 -999 -999 -999
2007-06-20 06:39 51°13.686 2°55.826 -999 -999 -999 -999 -999
2007-06-20 06:40 51°13.692 2°55.75 -999 -999 -999 -999 -999
2007-06-20 06:41 51°13.69 2°55.711 -999 -999 -999 -999 -999
2007-06-20 06:42 51°13.718 2°55.706 -999 -999 -999 -999 -999
2007-06-20 06:43 51°13.802 2°55.649 -999 -999 -999 -999 -999
2007-06-20 06:44 51°13.912 2°55.577 -999 -999 -999 -999 -999
2007-06-20 06:45 51°14.025 2°55.503 -999 -999 -999 -999 -999
2007-06-20 06:46 51°14.12 2°55.431 -999 -999 -999 -999 -999
2007-06-20 06:47 51°14.223 2°55.325 -999 -999 -999 -999 -999
2007-06-20 06:48 51°14.333 2°55.128 -999 -999 -999 -999 -999
2007-06-20 06:49 51°14.438 2°54.844 -999 -999 -999 -999 -999
2007-06-20 06:50 51°14.416 2°54.512 -999 -999 -999 -999 -999
2007-06-20 06:51 51°14.323 2°54.216 -999 -999 -999 -999 -999
2007-06-20 06:52 51°14.225 2°53.921 -999 -999 -999 -999 -999
2007-06-20 06:53 51°14.126 2°53.625 -999 -999 -999 -999 -999
2007-06-20 06:54 51°14.033 2°53.322 -999 -999 -999 -999 -999
2007-06-20 06:55 51°13.938 2°53.016 -999 -999 -999 -999 -999
2007-06-20 06:56 51°13.835 2°52.718 -999 -999 -999 -999 -999
2007-06-20 06:57 51°13.727 2°52.423 -999 -999 -999 -999 -999
2007-06-20 06:58 51°13.62 2°52.126 -999 -999 -999 -999 -999
2007-06-20 06:59 51°13.513 2°51.828 -999 -999 -999 -999 -999
2007-06-20 07:00 51°13.407 2°51.529 -999 -999 -999 -999 -999
2007-06-20 07:01 51°13.299 2°51.231 -999 -999 -999 -999 -999
2007-06-20 07:02 51°13.193 2°50.933 -999 -999 -999 -999 -999
2007-06-20 07:03 51°13.086 2°50.637 -999 -999 -999 -999 -999
2007-06-20 07:04 51°12.981 2°50.341 -999 -999 -999 -999 -999
2007-06-20 07:05 51°12.876 2°50.045 -999 -999 -999 -999 -999
2007-06-20 07:06 51°12.778 2°49.743 -999 -999 -999 -999 -999
2007-06-20 07:07 51°12.681 2°49.44 -999 -999 -999 -999 -999
2007-06-20 07:08 51°12.585 2°49.135 -999 -999 -999 -999 -999
2007-06-20 07:09 51°12.489 2°48.827 -999 -999 -999 -999 -999
2007-06-20 07:10 51°12.393 2°48.519 -999 -999 -999 -999 -999
2007-06-20 07:11 51°12.296 2°48.21 -999 -999 -999 -999 -999
2007-06-20 07:12 51°12.199 2°47.899 -999 -999 -999 -999 -999
2007-06-20 07:13 51°12.103 2°47.591 -999 -999 -999 -999 -999
2007-06-20 07:14 51°12.006 2°47.283 -999 -999 -999 -999 -999
2007-06-20 07:15 51°11.911 2°46.974 -999 -999 -999 -999 -999
2007-06-20 07:16 51°11.815 2°46.665 -999 -999 -999 -999 -999
2007-06-20 07:17 51°11.712 2°46.36 -999 -999 -999 -999 -999
2007-06-20 07:18 51°11.611 2°46.054 -999 -999 -999 -999 -999
2007-06-20 07:19 51°11.512 2°45.749 -999 -999 -999 -999 -999
2007-06-20 07:20 51°11.412 2°45.444 -999 -999 -999 -999 -999
2007-06-20 07:21 51°11.313 2°45.137 -999 -999 -999 -999 -999
2007-06-20 07:22 51°11.213 2°44.828 -999 -999 -999 -999 -999
2007-06-20 07:23 51°11.113 2°44.518 -999 -999 -999 -999 -999
2007-06-20 07:24 51°11.014 2°44.209 -999 -999 -999 -999 -999
2007-06-20 07:25 51°10.913 2°43.898 -999 -999 -999 -999 -999
2007-06-20 07:26 51°10.813 2°43.586 -999 -999 -999 -999 -999
2007-06-20 07:27 51°10.696 2°43.292 -999 -999 -999 -999 -999
2007-06-20 07:28 51°10.578 2°42.997 -999 -999 -999 -999 -999
2007-06-20 07:29 51°10.464 2°42.7 -999 -999 -999 -999 -999
2007-06-20 07:30 51°10.347 2°42.402 -999 -999 -999 -999 -999
2007-06-20 07:31 51°10.231 2°42.104 -999 -999 -999 -999 -999
2007-06-20 07:32 51°10.121 2°41.801 -999 -999 -999 -999 -999
2007-06-20 07:33 51°10.022 2°41.486 -999 -999 -999 -999 -999
2007-06-20 07:34 51°9.923 2°41.169 -999 -999 -999 -999 -999
2007-06-20 07:35 51°9.83 2°40.848 -999 -999 -999 -999 -999
2007-06-20 07:36 51°9.737 2°40.527 -999 -999 -999 -999 -999
2007-06-20 07:37 51°9.645 2°40.206 -999 -999 -999 -999 -999
2007-06-20 07:38 51°9.552 2°39.886 -999 -999 -999 -999 -999
2007-06-20 07:39 51°9.46 2°39.564 -999 -999 -999 -999 -999
2007-06-20 07:40 51°9.377 2°39.295 -999 -999 -999 -999 -999
2007-06-20 07:41 51°9.314 2°39.194 -999 -999 -999 -999 -999
2007-06-20 07:42 51°9.269 2°39.15 -999 -999 -999 -999 -999
2007-06-20 07:43 51°9.238 2°39.11 -999 -999 -999 -999 -999
2007-06-20 07:44 51°9.215 2°39.053 -999 -999 -999 -999 -999
2007-06-20 07:45 51°9.195 2°38.936 -999 -999 -999 -999 -999
2007-06-20 07:46 51°9.183 2°38.836 -999 -999 -999 -999 -999
2007-06-20 07:47 51°9.177 2°38.758 -999 -999 -999 -999 -999
2007-06-20 07:48 51°9.171 2°38.683 -999 -999 -999 -999 -999
2007-06-20 07:49 51°9.157 2°38.609 -999 -999 -999 -999 -999
2007-06-20 07:50 51°9.141 2°38.534 -999 -999 -999 -999 -999
2007-06-20 07:51 51°9.127 2°38.455 -999 -999 -999 -999 -999
2007-06-20 07:52 51°9.12 2°38.373 -999 -999 -999 -999 -999
2007-06-20 07:53 51°9.115 2°38.29 -999 -999 -999 -999 -999
2007-06-20 07:54 51°9.103 2°38.213 -999 -999 -999 -999 -999
2007-06-20 07:55 51°9.085 2°38.137 -999 -999 -999 -999 -999
2007-06-20 07:56 51°9.066 2°38.063 -999 -999 -999 -999 -999
2007-06-20 07:57 51°9.05 2°37.986 -999 -999 -999 -999 -999
2007-06-20 07:58 51°9.045 2°37.907 -999 -999 -999 -999 -999
2007-06-20 07:59 51°9.047 2°37.827 -999 -999 -999 -999 -999
2007-06-20 08:00 51°9.045 2°37.748 -999 -999 -999 -999 -999
2007-06-20 08:01 51°9.037 2°37.67 -999 -999 -999 -999 -999
2007-06-20 08:02 51°9.026 2°37.59 -999 -999 -999 -999 -999
2007-06-20 08:03 51°9.025 2°37.507 -999 -999 -999 -999 -999
2007-06-20 08:04 51°9.026 2°37.423 -999 -999 -999 -999 -999
2007-06-20 08:05 51°9.023 2°37.339 -999 -999 -999 -999 -999
2007-06-20 08:06 51°9.016 2°37.256 -999 -999 -999 -999 -999
2007-06-20 08:07 51°9.016 2°37.172 -999 -999 -999 -999 -999
2007-06-20 08:08 51°9.021 2°37.086 -999 -999 -999 -999 -999
2007-06-20 08:09 51°9.024 2°37.002 -999 -999 -999 -999 -999
2007-06-20 08:10 51°9.021 2°36.919 -999 -999 -999 -999 -999
2007-06-20 08:11 51°9.009 2°36.842 -999 -999 -999 -999 -999
2007-06-20 08:12 51°8.99 2°36.764 -999 -999 -999 -999 -999
2007-06-20 08:13 51°8.971 2°36.686 -999 -999 -999 -999 -999
2007-06-20 08:14 51°8.954 2°36.609 -999 -999 -999 -999 -999
2007-06-20 08:15 51°8.937 2°36.529 -999 -999 -999 -999 -999
2007-06-20 08:16 51°8.921 2°36.447 -999 -999 -999 -999 -999
2007-06-20 08:17 51°8.905 2°36.367 -999 -999 -999 -999 -999
2007-06-20 08:18 51°8.89 2°36.284 -999 -999 -999 -999 -999
2007-06-20 08:19 51°8.879 2°36.2 -999 -999 -999 -999 -999
2007-06-20 08:20 51°8.877 2°36.117 -999 -999 -999 -999 -999
2007-06-20 08:21 51°8.896 2°36.043 -999 -999 -999 -999 -999
2007-06-20 08:22 51°8.929 2°36.004 -999 -999 -999 -999 -999
2007-06-20 08:23 51°8.952 2°35.976 -999 -999 -999 -999 -999
2007-06-20 08:24 51°8.967 2°35.949 -999 -999 -999 -999 -999
2007-06-20 08:25 51°8.976 2°35.927 -999 -999 -999 -999 -999
2007-06-20 08:26 51°8.993 2°35.898 -999 -999 -999 -999 -999
2007-06-20 08:27 51°9.117 2°35.82 -999 -999 -999 -999 -999
2007-06-20 08:28 51°9.324 2°35.728 -999 -999 -999 -999 -999
2007-06-20 08:29 51°9.539 2°35.739 -999 -999 -999 -999 -999
2007-06-20 08:30 51°9.755 2°35.758 -999 -999 -999 -999 -999
2007-06-20 08:31 51°9.972 2°35.774 -999 -999 -999 -999 -999
2007-06-20 08:32 51°10.178 2°35.858 -999 -999 -999 -999 -999
2007-06-20 08:33 51°10.379 2°35.966 -999 -999 -999 -999 -999
2007-06-20 08:34 51°10.571 2°36.112 -999 -999 -999 -999 -999
2007-06-20 08:35 51°10.754 2°36.283 -999 -999 -999 -999 -999
2007-06-20 08:36 51°10.941 2°36.446 -999 -999 -999 -999 -999
2007-06-20 08:37 51°11.132 2°36.594 -999 -999 -999 -999 -999
2007-06-20 08:38 51°11.323 2°36.742 -999 -999 -999 -999 -999
2007-06-20 08:39 51°11.515 2°36.886 -999 -999 -999 -999 -999
2007-06-20 08:40 51°11.706 2°37.033 -999 -999 -999 -999 -999
2007-06-20 08:41 51°11.895 2°37.187 -999 -999 -999 -999 -999
2007-06-20 08:42 51°12.079 2°37.35 -999 -999 -999 -999 -999
2007-06-20 08:43 51°12.252 2°37.537 -999 -999 -999 -999 -999
2007-06-20 08:44 51°12.427 2°37.722 -999 -999 -999 -999 -999
2007-06-20 08:45 51°12.602 2°37.911 -999 -999 -999 -999 -999
2007-06-20 08:46 51°12.78 2°38.097 -999 -999 -999 -999 -999
2007-06-20 08:47 51°12.957 2°38.285 -999 -999 -999 -999 -999
2007-06-20 08:48 51°13.136 2°38.465 -999 -999 -999 -999 -999
2007-06-20 08:49 51°13.323 2°38.625 -999 -999 -999 -999 -999
2007-06-20 08:50 51°13.525 2°38.739 -999 -999 -999 -999 -999
2007-06-20 08:51 51°13.728 2°38.853 -999 -999 -999 -999 -999
2007-06-20 08:52 51°13.941 2°38.904 -999 -999 -999 -999 -999
2007-06-20 08:53 51°14.157 2°38.928 -999 -999 -999 -999 -999
2007-06-20 08:54 51°14.376 2°38.957 -999 -999 -999 -999 -999
2007-06-20 08:55 51°14.593 2°38.989 -999 -999 -999 -999 -999
2007-06-20 08:56 51°14.813 2°38.999 -999 -999 -999 -999 -999
2007-06-20 08:57 51°15.031 2°38.993 -999 -999 -999 -999 -999
2007-06-20 08:58 51°15.249 2°38.989 -999 -999 -999 -999 -999
2007-06-20 08:59 51°15.468 2°38.986 -999 -999 -999 -999 -999
2007-06-20 09:00 51°15.688 2°38.984 -999 -999 -999 -999 -999
2007-06-20 09:01 51°15.907 2°38.978 -999 -999 -999 -999 -999
2007-06-20 09:02 51°16.124 2°38.949 -999 -999 -999 -999 -999
2007-06-20 09:03 51°16.341 2°38.915 -999 -999 -999 -999 -999
2007-06-20 09:04 51°16.556 2°38.854 -999 -999 -999 -999 -999
2007-06-20 09:05 51°16.755 2°38.692 -999 -999 -999 -999 -999
2007-06-20 09:06 51°16.939 2°38.471 -999 -999 -999 -999 -999
2007-06-20 09:07 51°17.129 2°38.259 -999 -999 -999 -999 -999
2007-06-20 09:08 51°17.313 2°38.051 -999 -999 -999 -999 -999
2007-06-20 09:09 51°17.497 2°37.844 -999 -999 -999 -999 -999
2007-06-20 09:10 51°17.682 2°37.637 -999 -999 -999 -999 -999
2007-06-20 09:11 51°17.869 2°37.43 -999 -999 -999 -999 -999
2007-06-20 09:12 51°18.057 2°37.23 -999 -999 -999 -999 -999
2007-06-20 09:13 51°18.241 2°37.028 -999 -999 -999 -999 -999
2007-06-20 09:14 51°18.425 2°36.823 -999 -999 -999 -999 -999
2007-06-20 09:15 51°18.61 2°36.613 -999 -999 -999 -999 -999
2007-06-20 09:16 51°18.794 2°36.404 -999 -999 -999 -999 -999
2007-06-20 09:17 51°18.975 2°36.192 -999 -999 -999 -999 -999
2007-06-20 09:18 51°19.155 2°35.984 -999 -999 -999 -999 -999
2007-06-20 09:19 51°19.337 2°35.774 -999 -999 -999 -999 -999
2007-06-20 09:20 51°19.518 2°35.563 -999 -999 -999 -999 -999
2007-06-20 09:21 51°19.699 2°35.351 -999 -999 -999 -999 -999
2007-06-20 09:22 51°19.882 2°35.139 -999 -999 -999 -999 -999
2007-06-20 09:23 51°20.066 2°34.924 -999 -999 -999 -999 -999
2007-06-20 09:24 51°20.249 2°34.716 -999 -999 -999 -999 -999
2007-06-20 09:25 51°20.429 2°34.506 -999 -999 -999 -999 -999
2007-06-20 09:26 51°20.61 2°34.292 -999 -999 -999 -999 -999
2007-06-20 09:27 51°20.793 2°34.081 -999 -999 -999 -999 -999
2007-06-20 09:28 51°20.977 2°33.868 -999 -999 -999 -999 -999
2007-06-20 09:29 51°21.163 2°33.657 -999 -999 -999 -999 -999
2007-06-20 09:30 51°21.35 2°33.447 -999 -999 -999 -999 -999
2007-06-20 09:31 51°21.538 2°33.242 -999 -999 -999 -999 -999
2007-06-20 09:32 51°21.724 2°33.038 -999 -999 -999 -999 -999
2007-06-20 09:33 51°21.909 2°32.835 -999 -999 -999 -999 -999
2007-06-20 09:34 51°22.095 2°32.632 -999 -999 -999 -999 -999
2007-06-20 09:35 51°22.278 2°32.424 -999 -999 -999 -999 -999
2007-06-20 09:36 51°22.456 2°32.208 -999 -999 -999 -999 -999
2007-06-20 09:37 51°22.538 2°31.879 -999 -999 -999 -999 -999
2007-06-20 09:38 51°22.539 2°31.506 -999 -999 -999 -999 -999
2007-06-20 09:39 51°22.541 2°31.129 -999 -999 -999 -999 -999
2007-06-20 09:40 51°22.546 2°30.75 -999 -999 -999 -999 -999
2007-06-20 09:41 51°22.554 2°30.374 -999 -999 -999 -999 -999
2007-06-20 09:42 51°22.566 2°30.001 -999 -999 -999 -999 -999
2007-06-20 09:43 51°22.578 2°29.627 -999 -999 -999 -999 -999
2007-06-20 09:44 51°22.589 2°29.256 -999 -999 -999 -999 -999
2007-06-20 09:45 51°22.601 2°28.885 -999 -999 -999 -999 -999
2007-06-20 09:46 51°22.605 2°28.511 -999 -999 -999 -999 -999
2007-06-20 09:47 51°22.602 2°28.135 -999 -999 -999 -999 -999
2007-06-20 09:48 51°22.603 2°27.76 -999 -999 -999 -999 -999
2007-06-20 09:49 51°22.604 2°27.385 -999 -999 -999 -999 -999
2007-06-20 09:50 51°22.605 2°27.012 -999 -999 -999 -999 -999
2007-06-20 09:51 51°22.606 2°26.636 -999 -999 -999 -999 -999
2007-06-20 09:52 51°22.612 2°26.262 -999 -999 -999 -999 -999
2007-06-20 09:53 51°22.709 2°25.937 -999 -999 -999 -999 -999
2007-06-20 09:54 51°22.845 2°25.643 -999 -999 -999 -999 -999
2007-06-20 09:55 51°23.027 2°25.443 -999 -999 -999 -999 -999
2007-06-20 09:56 51°23.235 2°25.443 -999 -999 -999 -999 -999
2007-06-20 09:57 51°23.44 2°25.512 -999 -999 -999 -999 -999
2007-06-20 09:58 51°23.653 2°25.554 -999 -999 -999 -999 -999
2007-06-20 09:59 51°23.863 2°25.597 -999 -999 -999 -999 -999
2007-06-20 10:00 51°24.071 2°25.638 -999 -999 -999 -999 -999
2007-06-20 10:01 51°24.279 2°25.675 -999 -999 -999 -999 -999
2007-06-20 10:02 51°24.487 2°25.725 -999 -999 -999 -999 -999
2007-06-20 10:03 51°24.689 2°25.777 -999 -999 -999 -999 -999
2007-06-20 10:04 51°24.896 2°25.825 -999 -999 -999 -999 -999
2007-06-20 10:05 51°25.098 2°25.871 -999 -999 -999 -999 -999
2007-06-20 10:06 51°25.305 2°25.919 -999 -999 -999 -999 -999
2007-06-20 10:07 51°25.511 2°25.965 -999 -999 -999 -999 -999
2007-06-20 10:08 51°25.717 2°26.016 -999 -999 -999 -999 -999
2007-06-20 10:09 51°25.925 2°26.065 -999 -999 -999 -999 -999
2007-06-20 10:10 51°26.131 2°26.115 -999 -999 -999 -999 -999
2007-06-20 10:11 51°26.337 2°26.167 -999 -999 -999 -999 -999
2007-06-20 10:12 51°26.541 2°26.214 -999 -999 -999 -999 -999
2007-06-20 10:13 51°26.744 2°26.273 -999 -999 -999 -999 -999
2007-06-20 10:14 51°26.952 2°26.319 -999 -999 -999 -999 -999
2007-06-20 10:15 51°27.158 2°26.369 -999 -999 -999 -999 -999
2007-06-20 10:16 51°27.366 2°26.421 -999 -999 -999 -999 -999
2007-06-20 10:17 51°27.567 2°26.477 -999 -999 -999 -999 -999
2007-06-20 10:18 51°27.771 2°26.53 -999 -999 -999 -999 -999
2007-06-20 10:19 51°27.974 2°26.586 -999 -999 -999 -999 -999
2007-06-20 10:20 51°28.17 2°26.643 -999 -999 -999 -999 -999
2007-06-20 10:21 51°28.374 2°26.686 -999 -999 -999 -999 -999
2007-06-20 10:22 51°28.558 2°26.575 -999 -999 -999 -999 -999
2007-06-20 10:23 51°28.654 2°26.259 -999 -999 -999 -999 -999
2007-06-20 10:24 51°28.773 2°25.961 -999 -999 -999 -999 -999
2007-06-20 10:25 51°28.893 2°25.664 -999 -999 -999 -999 -999
2007-06-20 10:26 51°29.016 2°25.362 -999 -999 -999 -999 -999
2007-06-20 10:27 51°29.135 2°25.07 -999 -999 -999 -999 -999
2007-06-20 10:28 51°29.254 2°24.771 -999 -999 -999 -999 -999
2007-06-20 10:29 51°29.405 2°24.525 -999 -999 -999 -999 -999
2007-06-20 10:30 51°29.603 2°24.453 -999 -999 -999 -999 -999
2007-06-20 10:31 51°29.803 2°24.508 -999 -999 -999 -999 -999
2007-06-20 10:32 51°30.003 2°24.557 -999 -999 -999 -999 -999
2007-06-20 10:33 51°30.19 2°24.653 -999 -999 -999 -999 -999
2007-06-20 10:34 51°30.35 2°24.825 -999 -999 -999 -999 -999
2007-06-20 10:35 51°30.516 2°24.988 -999 -999 -999 -999 -999
2007-06-20 10:36 51°30.686 2°25.139 -999 -999 -999 -999 -999
2007-06-20 10:37 51°30.858 2°25.29 -999 -999 -999 -999 -999
2007-06-20 10:38 51°31.036 2°25.437 -999 -999 -999 -999 -999
2007-06-20 10:39 51°31.214 2°25.592 -999 -999 -999 -999 -999
2007-06-20 10:40 51°31.383 2°25.741 -999 -999 -999 -999 -999
2007-06-20 10:41 51°31.554 2°25.898 -999 -999 -999 -999 -999
2007-06-20 10:42 51°31.728 2°26.052 -999 -999 -999 -999 -999
2007-06-20 10:43 51°31.898 2°26.21 -999 -999 -999 -999 -999
2007-06-20 10:44 51°32.07 2°26.368 -999 -999 -999 -999 -999
2007-06-20 10:45 51°32.244 2°26.527 -999 -999 -999 -999 -999
2007-06-20 10:46 51°32.416 2°26.688 -999 -999 -999 -999 -999
2007-06-20 10:47 51°32.589 2°26.841 -999 -999 -999 -999 -999
2007-06-20 10:48 51°32.76 2°27.003 -999 -999 -999 -999 -999
2007-06-20 10:49 51°32.926 2°27.172 -999 -999 -999 -999 -999
2007-06-20 10:50 51°33.092 2°27.346 -999 -999 -999 -999 -999
2007-06-20 10:51 51°33.264 2°27.517 -999 -999 -999 -999 -999
2007-06-20 10:52 51°33.428 2°27.683 -999 -999 -999 -999 -999
2007-06-20 10:53 51°33.591 2°27.843 -999 -999 -999 -999 -999
2007-06-20 10:54 51°33.756 2°28.01 -999 -999 -999 -999 -999
2007-06-20 10:55 51°33.921 2°28.181 -999 -999 -999 -999 -999
2007-06-20 10:56 51°34.094 2°28.346 -999 -999 -999 -999 -999
2007-06-20 10:57 51°34.26 2°28.504 -999 -999 -999 -999 -999
2007-06-20 10:58 51°34.426 2°28.669 -999 -999 -999 -999 -999
2007-06-20 10:59 51°34.595 2°28.833 -999 -999 -999 -999 -999
2007-06-20 11:00 51°34.761 2°29.007 -999 -999 -999 -999 -999
2007-06-20 11:01 51°34.934 2°29.172 -999 -999 -999 -999 -999
2007-06-20 11:02 51°35.1 2°29.34 -999 -999 -999 -999 -999
2007-06-20 11:03 51°35.265 2°29.494 -999 -999 -999 -999 -999
2007-06-20 11:04 51°35.428 2°29.656 -999 -999 -999 -999 -999
2007-06-20 11:05 51°35.596 2°29.82 -999 -999 -999 -999 -999
2007-06-20 11:06 51°35.761 2°29.984 -999 -999 -999 -999 -999
2007-06-20 11:07 51°35.932 2°30.154 -999 -999 -999 -999 -999
2007-06-20 11:08 51°36.095 2°30.317 -999 -999 -999 -999 -999
2007-06-20 11:09 51°36.261 2°30.48 -999 -999 -999 -999 -999
2007-06-20 11:10 51°36.428 2°30.643 -999 -999 -999 -999 -999
2007-06-20 11:11 51°36.593 2°30.805 -999 -999 -999 -999 -999
2007-06-20 11:12 51°36.763 2°30.972 -999 -999 -999 -999 -999
2007-06-20 11:13 51°36.936 2°31.137 -999 -999 -999 -999 -999
2007-06-20 11:14 51°37.106 2°31.302 -999 -999 -999 -999 -999
2007-06-20 11:15 51°37.264 2°31.47 -999 -999 -999 -999 -999
2007-06-20 11:16 51°37.434 2°31.642 -999 -999 -999 -999 -999
2007-06-20 11:17 51°37.597 2°31.802 -999 -999 -999 -999 -999
2007-06-20 11:18 51°37.763 2°31.973 -999 -999 -999 -999 -999
2007-06-20 11:19 51°37.922 2°32.134 -999 -999 -999 -999 -999
2007-06-20 11:20 51°38.085 2°32.307 -999 -999 -999 -999 -999
2007-06-20 11:21 51°38.249 2°32.477 -999 -999 -999 -999 -999
2007-06-20 11:22 51°38.409 2°32.645 -999 -999 -999 -999 -999
2007-06-20 11:23 51°38.569 2°32.812 -999 -999 -999 -999 -999
2007-06-20 11:24 51°38.732 2°32.972 -999 -999 -999 -999 -999
2007-06-20 11:25 51°38.895 2°33.139 -999 -999 -999 -999 -999
2007-06-20 11:26 51°39.052 2°33.303 -999 -999 -999 -999 -999
2007-06-20 11:27 51°39.216 2°33.471 -999 -999 -999 -999 -999
2007-06-20 11:28 51°39.375 2°33.632 -999 -999 -999 -999 -999
2007-06-20 11:29 51°39.538 2°33.805 -999 -999 -999 -999 -999
2007-06-20 11:30 51°39.702 2°33.982 -999 -999 -999 -999 -999
2007-06-20 11:31 51°39.871 2°34.147 -999 -999 -999 -999 -999
2007-06-20 11:32 51°40.04 2°34.315 -999 -999 -999 -999 -999
2007-06-20 11:33 51°40.2 2°34.481 -999 -999 -999 -999 -999
2007-06-20 11:34 51°40.371 2°34.65 -999 -999 -999 -999 -999
2007-06-20 11:35 51°40.536 2°34.812 -999 -999 -999 -999 -999
2007-06-20 11:36 51°40.704 2°34.984 -999 -999 -999 -999 -999
2007-06-20 11:37 51°40.865 2°35.14 -999 -999 -999 -999 -999
2007-06-20 11:38 51°40.995 2°35.361 -999 -999 -999 -999 -999
2007-06-20 11:39 51°41.021 2°35.67 -999 -999 -999 -999 -999
2007-06-20 11:40 51°41.039 2°35.987 -999 -999 -999 -999 -999
2007-06-20 11:41 51°41.002 2°36.311 -999 -999 -999 -999 -999
2007-06-20 11:42 51°40.966 2°36.623 -999 -999 -999 -999 -999
2007-06-20 11:43 51°40.879 2°36.937 -999 -999 -999 -999 -999
2007-06-20 11:44 51°40.776 2°37.233 -999 -999 -999 -999 -999
2007-06-20 11:45 51°40.674 2°37.532 -999 -999 -999 -999 -999
2007-06-20 11:46 51°40.574 2°37.837 -999 -999 -999 -999 -999
2007-06-20 11:47 51°40.471 2°38.147 -999 -999 -999 -999 -999
2007-06-20 11:48 51°40.374 2°38.454 -999 -999 -999 -999 -999
2007-06-20 11:49 51°40.279 2°38.756 -999 -999 -999 -999 -999
2007-06-20 11:50 51°40.18 2°39.067 -999 -999 -999 -999 -999
2007-06-20 11:51 51°40.088 2°39.369 -999 -999 -999 -999 -999
2007-06-20 11:52 51°39.99 2°39.677 -999 -999 -999 -999 -999
2007-06-20 11:53 51°39.895 2°39.975 -999 -999 -999 -999 -999
2007-06-20 11:54 51°39.726 2°40.194 -999 -999 -999 -999 -999
2007-06-20 11:55 51°39.502 2°40.238 -999 -999 -999 -999 -999
2007-06-20 11:56 51°39.277 2°40.126 -999 -999 -999 -999 -999
2007-06-20 11:57 51°39.069 2°39.925 -999 -999 -999 -999 -999
2007-06-20 11:58 51°38.859 2°39.715 -999 -999 -999 -999 -999
2007-06-20 11:59 51°38.652 2°39.506 -999 -999 -999 -999 -999
2007-06-20 12:00 51°38.447 2°39.307 -999 -999 -999 -999 -999
2007-06-20 12:01 51°38.251 2°39.069 -999 -999 -999 -999 -999
2007-06-20 12:02 51°38.067 2°38.823 -999 -999 -999 -999 -999
2007-06-20 12:03 51°37.877 2°38.571 -999 -999 -999 -999 -999
2007-06-20 12:04 51°37.692 2°38.333 -999 -999 -999 -999 -999
2007-06-20 12:05 51°37.505 2°38.092 -999 -999 -999 -999 -999
2007-06-20 12:06 51°37.314 2°37.845 -999 -999 -999 -999 -999
2007-06-20 12:07 51°37.129 2°37.606 -999 -999 -999 -999 -999
2007-06-20 12:08 51°36.939 2°37.36 -999 -999 -999 -999 -999
2007-06-20 12:09 51°36.754 2°37.122 -999 -999 -999 -999 -999
2007-06-20 12:10 51°36.563 2°36.875 -999 -999 -999 -999 -999
2007-06-20 12:11 51°36.378 2°36.636 -999 -999 -999 -999 -999
2007-06-20 12:12 51°36.188 2°36.386 -999 -999 -999 -999 -999
2007-06-20 12:13 51°36.003 2°36.145 -999 -999 -999 -999 -999
2007-06-20 12:14 51°35.813 2°35.894 -999 -999 -999 -999 -999
2007-06-20 12:15 51°35.625 2°35.644 -999 -999 -999 -999 -999
2007-06-20 12:16 51°35.441 2°35.401 -999 -999 -999 -999 -999
2007-06-20 12:17 51°35.251 2°35.148 -999 -999 -999 -999 -999
2007-06-20 12:18 51°35.066 2°34.903 -999 -999 -999 -999 -999
2007-06-20 12:19 51°34.875 2°34.646 -999 -999 -999 -999 -999
2007-06-20 12:20 51°34.692 2°34.399 -999 -999 -999 -999 -999
2007-06-20 12:21 51°34.505 2°34.144 -999 -999 -999 -999 -999
2007-06-20 12:22 51°34.319 2°33.892 -999 -999 -999 -999 -999
2007-06-20 12:23 51°34.127 2°33.635 -999 -999 -999 -999 -999
2007-06-20 12:24 51°33.939 2°33.384 -999 -999 -999 -999 -999
2007-06-20 12:25 51°33.754 2°33.136 -999 -999 -999 -999 -999
2007-06-20 12:26 51°33.564 2°32.885 -999 -999 -999 -999 -999
2007-06-20 12:27 51°33.38 2°32.643 -999 -999 -999 -999 -999
2007-06-20 12:28 51°33.189 2°32.393 -999 -999 -999 -999 -999
2007-06-20 12:29 51°33.002 2°32.149 -999 -999 -999 -999 -999
2007-06-20 12:30 51°32.813 2°31.905 -999 -999 -999 -999 -999
2007-06-20 12:31 51°32.62 2°31.678 -999 -999 -999 -999 -999
2007-06-20 12:32 51°32.4 2°31.553 -999 -999 -999 -999 -999
2007-06-20 12:33 51°32.169 2°31.605 -999 -999 -999 -999 -999
2007-06-20 12:34 51°31.951 2°31.718 -999 -999 -999 -999 -999
2007-06-20 12:35 51°31.731 2°31.822 -999 -999 -999 -999 -999
2007-06-20 12:36 51°31.512 2°31.917 -999 -999 -999 -999 -999
2007-06-20 12:37 51°31.288 2°32.011 -999 -999 -999 -999 -999
2007-06-20 12:38 51°31.072 2°32.101 -999 -999 -999 -999 -999
2007-06-20 12:39 51°30.849 2°32.198 -999 -999 -999 -999 -999
2007-06-20 12:40 51°30.63 2°32.294 -999 -999 -999 -999 -999
2007-06-20 12:41 51°30.414 2°32.385 -999 -999 -999 -999 -999
2007-06-20 12:42 51°30.191 2°32.48 -999 -999 -999 -999 -999
2007-06-20 12:43 51°29.978 2°32.573 -999 -999 -999 -999 -999
2007-06-20 12:44 51°29.785 2°32.744 -999 -999 -999 -999 -999
2007-06-20 12:45 51°29.723 2°33.051 -999 -999 -999 -999 -999
2007-06-20 12:46 51°29.739 2°33.376 -999 -999 -999 -999 -999
2007-06-20 12:47 51°29.749 2°33.699 -999 -999 -999 -999 -999
2007-06-20 12:48 51°29.74 2°34.024 -999 -999 -999 -999 -999
2007-06-20 12:49 51°29.735 2°34.356 -999 -999 -999 -999 -999
2007-06-20 12:50 51°29.723 2°34.692 -999 -999 -999 -999 -999
2007-06-20 12:51 51°29.715 2°35.026 -999 -999 -999 -999 -999
2007-06-20 12:52 51°29.705 2°35.355 -999 -999 -999 -999 -999
2007-06-20 12:53 51°29.7 2°35.695 -999 -999 -999 -999 -999
2007-06-20 12:54 51°29.691 2°36.032 -999 -999 -999 -999 -999
2007-06-20 12:55 51°29.685 2°36.369 -999 -999 -999 -999 -999
2007-06-20 12:56 51°29.677 2°36.702 -999 -999 -999 -999 -999
2007-06-20 12:57 51°29.668 2°37.037 -999 -999 -999 -999 -999
2007-06-20 12:58 51°29.584 2°37.342 -999 -999 -999 -999 -999
2007-06-20 12:59 51°29.405 2°37.546 -999 -999 -999 -999 -999
2007-06-20 13:00 51°29.19 2°37.688 -999 -999 -999 -999 -999
2007-06-20 13:01 51°28.972 2°37.796 -999 -999 -999 -999 -999
2007-06-20 13:02 51°28.751 2°37.919 -999 -999 -999 -999 -999
2007-06-20 13:03 51°28.538 2°38.049 -999 -999 -999 -999 -999
2007-06-20 13:04 51°28.324 2°38.173 -999 -999 -999 -999 -999
2007-06-20 13:05 51°28.11 2°38.301 -999 -999 -999 -999 -999
2007-06-20 13:06 51°27.896 2°38.43 -999 -999 -999 -999 -999
2007-06-20 13:07 51°27.682 2°38.561 -999 -999 -999 -999 -999
2007-06-20 13:08 51°27.466 2°38.693 -999 -999 -999 -999 -999
2007-06-20 13:09 51°27.252 2°38.824 -999 -999 -999 -999 -999
2007-06-20 13:10 51°27.037 2°38.948 -999 -999 -999 -999 -999
2007-06-20 13:11 51°26.82 2°39.063 -999 -999 -999 -999 -999
2007-06-20 13:12 51°26.601 2°39.177 -999 -999 -999 -999 -999
2007-06-20 13:13 51°26.384 2°39.294 -999 -999 -999 -999 -999
2007-06-20 13:14 51°26.169 2°39.413 -999 -999 -999 -999 -999
2007-06-20 13:15 51°25.952 2°39.527 -999 -999 -999 -999 -999
2007-06-20 13:16 51°25.735 2°39.64 -999 -999 -999 -999 -999
2007-06-20 13:17 51°25.518 2°39.754 -999 -999 -999 -999 -999
2007-06-20 13:18 51°25.302 2°39.866 -999 -999 -999 -999 -999
2007-06-20 13:19 51°25.088 2°39.975 -999 -999 -999 -999 -999
2007-06-20 13:20 51°24.87 2°40.089 -999 -999 -999 -999 -999
2007-06-20 13:21 51°24.654 2°40.203 -999 -999 -999 -999 -999
2007-06-20 13:22 51°24.439 2°40.317 -999 -999 -999 -999 -999
2007-06-20 13:23 51°24.224 2°40.432 -999 -999 -999 -999 -999
2007-06-20 13:24 51°24.005 2°40.53 -999 -999 -999 -999 -999
2007-06-20 13:25 51°23.776 2°40.525 -999 -999 -999 -999 -999
2007-06-20 13:26 51°23.548 2°40.507 -999 -999 -999 -999 -999
2007-06-20 13:27 51°23.319 2°40.495 -999 -999 -999 -999 -999
2007-06-20 13:28 51°23.091 2°40.484 -999 -999 -999 -999 -999
2007-06-20 13:29 51°22.863 2°40.474 -999 -999 -999 -999 -999
2007-06-20 13:30 51°22.635 2°40.461 -999 -999 -999 -999 -999
2007-06-20 13:31 51°22.412 2°40.443 -999 -999 -999 -999 -999
2007-06-20 13:32 51°22.189 2°40.429 -999 -999 -999 -999 -999
2007-06-20 13:33 51°21.965 2°40.416 -999 -999 -999 -999 -999
2007-06-20 13:34 51°21.743 2°40.406 -999 -999 -999 -999 -999
2007-06-20 13:35 51°21.518 2°40.392 -999 -999 -999 -999 -999
2007-06-20 13:36 51°21.294 2°40.383 -999 -999 -999 -999 -999
2007-06-20 13:37 51°21.07 2°40.374 -999 -999 -999 -999 -999
2007-06-20 13:38 51°20.853 2°40.427 -999 -999 -999 -999 -999
2007-06-20 13:39 51°20.744 2°40.705 -999 -999 -999 -999 -999
2007-06-20 13:40 51°20.681 2°41.031 -999 -999 -999 -999 -999
2007-06-20 13:41 51°20.576 2°41.341 -999 -999 -999 -999 -999
2007-06-20 13:42 51°20.479 2°41.657 -999 -999 -999 -999 -999
2007-06-20 13:43 51°20.384 2°41.978 -999 -999 -999 -999 -999
2007-06-20 13:44 51°20.287 2°42.297 -999 -999 -999 -999 -999
2007-06-20 13:45 51°20.192 2°42.613 -999 -999 -999 -999 -999
2007-06-20 13:46 51°20.102 2°42.924 -999 -999 -999 -999 -999
2007-06-20 13:47 51°20.005 2°43.23 -999 -999 -999 -999 -999
2007-06-20 13:48 51°19.909 2°43.539 -999 -999 -999 -999 -999
2007-06-20 13:49 51°19.807 2°43.847 -999 -999 -999 -999 -999
2007-06-20 13:50 51°19.718 2°44.165 -999 -999 -999 -999 -999
2007-06-20 13:51 51°19.636 2°44.484 -999 -999 -999 -999 -999
2007-06-20 13:52 51°19.553 2°44.808 -999 -999 -999 -999 -999
2007-06-20 13:53 51°19.47 2°45.128 -999 -999 -999 -999 -999
2007-06-20 13:54 51°19.386 2°45.452 -999 -999 -999 -999 -999
2007-06-20 13:55 51°19.304 2°45.775 -999 -999 -999 -999 -999
2007-06-20 13:56 51°19.216 2°46.095 -999 -999 -999 -999 -999
2007-06-20 13:57 51°19.13 2°46.416 -999 -999 -999 -999 -999
2007-06-20 13:58 51°19.04 2°46.742 -999 -999 -999 -999 -999
2007-06-20 13:59 51°18.953 2°47.064 -999 -999 -999 -999 -999
2007-06-20 14:00 51°18.867 2°47.382 -999 -999 -999 -999 -999
2007-06-20 14:01 51°18.782 2°47.703 -999 -999 -999 -999 -999
2007-06-20 14:02 51°18.698 2°48.034 -999 -999 -999 -999 -999
2007-06-20 14:03 51°18.615 2°48.359 -999 -999 -999 -999 -999
2007-06-20 14:04 51°18.531 2°48.686 -999 -999 -999 -999 -999
2007-06-20 14:05 51°18.447 2°49.02 -999 -999 -999 -999 -999
2007-06-20 14:06 51°18.364 2°49.352 -999 -999 -999 -999 -999
2007-06-20 14:07 51°18.278 2°49.685 -999 -999 -999 -999 -999
2007-06-20 14:08 51°18.192 2°50.017 -999 -999 -999 -999 -999
2007-06-20 14:09 51°18.104 2°50.348 -999 -999 -999 -999 -999
2007-06-20 14:10 51°18.024 2°50.679 -999 -999 -999 -999 -999
2007-06-20 14:11 51°17.935 2°51.001 -999 -999 -999 -999 -999
2007-06-20 14:12 51°17.799 2°51.288 -999 -999 -999 -999 -999
2007-06-20 14:13 51°17.668 2°51.578 -999 -999 -999 -999 -999
2007-06-20 14:14 51°17.536 2°51.87 -999 -999 -999 -999 -999
2007-06-20 14:15 51°17.403 2°52.158 -999 -999 -999 -999 -999
2007-06-20 14:16 51°17.257 2°52.434 -999 -999 -999 -999 -999
2007-06-20 14:17 51°17.082 2°52.658 -999 -999 -999 -999 -999
2007-06-20 14:18 51°16.906 2°52.88 -999 -999 -999 -999 -999
2007-06-20 14:19 51°16.744 2°53.13 -999 -999 -999 -999 -999
2007-06-20 14:20 51°16.607 2°53.418 -999 -999 -999 -999 -999
2007-06-20 14:21 51°16.472 2°53.716 -999 -999 -999 -999 -999
2007-06-20 14:22 51°16.347 2°54.018 -999 -999 -999 -999 -999
2007-06-20 14:23 51°16.251 2°54.245 -999 -999 -999 -999 -999
2007-06-20 14:24 51°16.19 2°54.394 -999 -999 -999 -999 -999
2007-06-20 14:25 51°16.185 2°54.441 -999 -999 -999 -999 -999
2007-06-20 14:26 51°16.185 2°54.48 -999 -999 -999 -999 -999
2007-06-20 14:27 51°16.089 2°54.538 -999 -999 -999 -999 -999
2007-06-20 14:28 51°15.902 2°54.618 -999 -999 -999 -999 -999
2007-06-20 14:29 51°15.715 2°54.698 -999 -999 -999 -999 -999
2007-06-20 14:30 51°15.542 2°54.774 -999 -999 -999 -999 -999
2007-06-20 14:31 51°15.393 2°54.838 -999 -999 -999 -999 -999
2007-06-20 14:32 51°15.225 2°54.906 -999 -999 -999 -999 -999
2007-06-20 14:33 51°15.017 2°54.943 -999 -999 -999 -999 -999
2007-06-20 14:34 51°14.806 2°54.982 -999 -999 -999 -999 -999
2007-06-20 14:35 51°14.595 2°55.016 -999 -999 -999 -999 -999
2007-06-20 14:36 51°14.388 2°55.062 -999 -999 -999 -999 -999
2007-06-20 14:37 51°14.237 2°55.296 -999 -999 -999 -999 -999
2007-06-20 14:38 51°14.082 2°55.437 -999 -999 -999 -999 -999
2007-06-20 14:39 51°13.948 2°55.538 -999 -999 -999 -999 -999
2007-06-20 14:40 51°13.843 2°55.617 -999 -999 -999 -999 -999
2007-06-20 14:41 51°13.761 2°55.709 -999 -999 -999 -999 -999
2007-06-20 14:42 51°13.698 2°55.824 -999 -999 -999 -999 -999
2007-06-20 14:43 51°13.647 2°55.937 -999 -999 -999 -999 -999
2007-06-20 14:44 51°13.613 2°56.028 -999 -999 -999 -999 -999
2007-06-20 14:45 51°13.599 2°56.084 -999 -999 -999 -999 -999
2007-06-20 14:46 51°13.596 2°56.094 -999 -999 -999 -999 -999
2007-06-20 14:47 51°13.597 2°56.096 -999 -999 -999 -999 -999
2007-06-20 14:48 51°13.598 2°56.094 -999 -999 -999 -999 -999